HEGN METAR and TAF | Updated Today

HEGN METAR

Hurghada International Airport

Observation time: 17 min. ago

HEGN 301900Z 00000KT CAVOK 22/09 Q1015 NOSIG

Need help? Read our tutorial on how to read METARs or read the parsed version below.

Hurghada International Airport (HEGN) METAR

  • Weather conditions on Tue, 30 Nov 2021 19:00:00 +0000 (17 min. ago):
  • Present conditions: Dry
  • Clouds: Clear skies
  • Visibility: Greater than 10 km
  • Wind: Calm
  • Temperature: 22 celsius
  • Dew point: 9 celsius
  • Pressure: 1015 millibars
  • Remarks: None


Useful to know...

HEGN TAF

Hurghada International Airport

TAF HEGN 301700Z 3018/0124 28010KT CAVOK BECMG 3021/3023 33015G26KT 6000 NSC TEMPO 0106/0115 3000 SA
Observation time: 2:17 hr. ago
Need help? Read our tutorial on how to read TAFs or read the parsed version below.

Parsed version of TAF for Hurghada International Airport (HEGN)

  • From 30 November at 18:00 UTC, to day 01 of the month at 24:00 UTC
  • Visibility: Greater than 10 km
  • Wind: 280 degrees at 10
  • Expected to arise soon, from 30 November at 21:00 UTC, to day 30 of the month at 23:00 UTC
  • Clouds: No significant clouds are observed
  • Visibility: 6000 meters
  • Wind: 330 degrees at 15
  • Expected to arise temporarily, from 01 November at 06:00 UTC, to day 01 of the month at 15:00 UTC
  • Visibility: 3000 meters
  • Other: Sand

Airports near HEGN

No airports found within 100nm radius.